Startpagina
METAR-TAF:

METAR-TAF

Vliegvelden :

Bangui, Centraal-Afrikaanse Republiek

Luchthaven M'Poko Internationaal

breedte: 04-24N, lengte: 018-31E, hoogte: 365 m

Actueel weer

Dit bericht is 39 minuten geleden gemaakt, om 15:00 UTC
Wind 2 kt uit variabele richting
Temperatuur 34°C
Vochtigheid 50%
Druk 1006 hPa
Zicht: 8000 m

METAR: FEFF 151500Z VRB02KT 8000 NSC 34/22 Q1006 BECMG 4000 HZ

Tijdstip: 16:39 (15:39 UTC)

Verwachting

Dit bericht is 4 uur en het 39 minuten geleden gemaakt, om 11:00 UTC
Verwachting geldig van 15 om 12 UTC tot 16 om 18 UTC
Wind 4 kt uit het westen
Zicht 10 km of meer
Verspreide wolken op 2300 ft
Weinig wolken op 4000 ft, Cumulonimbus.
Kans 30% :
Tijdelijke
van 15 om 13 UTC tot 15 om 17 UTC
onweer
Van 15 om 1800 UTC
Wind 2 kt uit variabele richting
Zicht: 3000 m
Weinig wolken op 1600 ft
Heiigheid
Wijzigt naar
van 15 om 20 UTC tot 15 om 21 UTC
Zicht: 7000 m

TAF: FEFF 151100Z 1512/1618 26004KT 9999 SCT023 FEW040CB PROB30 TEMPO 1513/1517 TS FM151800 VRB02KT 3000 HZ FEW016 BECMG 1520/1521 7000 NSW

Waarnemingen en weersverwachtingen van meer dan 4000 vliegvelden (METAR en TAF).

De beschikbare stations zijn de gele en rode punten op de kaart.

Ga met uw muis naar het station om de naam te zien.

Klik dan om waarnemingen en weersverwachtingen te zien.

kaart wijzigen: klik op de groene knoppen met een zwart kruis om in te zoomen, op de groene knop met een streepje om uit te zoomen of op de groene pijlen voor aangrenzende kaarten.


METAR-TAF: